Time;durP1;ratioP1;P1;durP2;ratioP2;P2;SDS_P1;SDS_P2;PMS_P1;PMS_P2;Temp;Humidity;BMP_temperature;BMP_pressure;BME280_temperature;BME280_humidity;BME280_pressure;Samples;Min_cycle;Max_cycle;Signal;HPM_P1;HPM_P2
2023/04/19 00:00:03;;;;;;;1.17;0.70;;;;;;;14.78;68.25;98262.78;4994845;28;20034;-69
2023/04/19 00:02:29;;;;;;;1.60;1.00;;;;;;;14.74;68.22;98258.84;5000835;28;20104;-69
2023/04/19 00:04:55;;;;;;;1.63;0.80;;;;;;;14.73;68.24;98249.28;4996697;28;20042;-69
2023/04/19 00:07:20;;;;;;;1.15;0.70;;;;;;;14.77;68.24;98254.09;4980253;28;20467;-69
2023/04/19 00:09:46;;;;;;;2.22;0.80;;;;;;;14.74;68.25;98250.94;5014295;28;20029;-69
2023/04/19 00:12:11;;;;;;;1.38;0.77;;;;;;;14.76;68.32;98251.63;4995137;28;20040;-69
2023/04/19 00:14:37;;;;;;;2.90;0.60;;;;;;;14.75;68.32;98256.03;4996544;28;20425;-69
2023/04/19 00:17:02;;;;;;;1.35;0.80;;;;;;;14.75;68.21;98250.78;4995953;28;20074;-69
2023/04/19 00:19:27;;;;;;;2.35;1.08;;;;;;;14.75;68.46;98245.50;5012707;28;20141;-69
2023/04/19 00:21:53;;;;;;;0.85;0.60;;;;;;;14.76;68.26;98243.72;5012424;28;20050;-69
2023/04/19 00:24:18;;;;;;;1.42;0.80;;;;;;;14.74;68.24;98241.25;5011502;28;20038;-69
2023/04/19 00:26:44;;;;;;;1.48;0.60;;;;;;;14.74;68.28;98243.06;4995863;28;20119;-71
2023/04/19 00:29:09;;;;;;;1.58;0.73;;;;;;;14.75;68.09;98239.44;5011731;28;20073;-69
2023/04/19 00:31:35;;;;;;;1.58;0.80;;;;;;;14.75;68.13;98242.06;5012663;28;20069;-69
2023/04/19 00:34:01;;;;;;;1.35;0.70;;;;;;;14.70;68.12;98232.03;5012083;28;20050;-70
2023/04/19 00:36:26;;;;;;;1.55;0.70;;;;;;;14.69;68.07;98230.41;5011490;28;20030;-71
2023/04/19 00:38:52;;;;;;;1.17;0.52;;;;;;;14.72;68.10;98229.25;5011502;28;20505;-70
2023/04/19 00:41:17;;;;;;;0.57;0.40;;;;;;;14.72;68.03;98224.00;5012333;28;20030;-69
2023/04/19 00:43:43;;;;;;;0.85;0.57;;;;;;;14.72;67.96;98240.59;5012053;28;20520;-69
2023/04/19 00:46:08;;;;;;;1.33;0.60;;;;;;;14.68;68.08;98225.31;4995942;28;20113;-70
2023/04/19 00:48:37;;;;;;;1.05;0.60;;;;;;;14.71;68.05;98233.69;4995733;28;20049;-70
2023/04/19 00:51:02;;;;;;;0.70;0.50;;;;;;;14.70;68.04;98223.34;4995828;28;20065;-69
2023/04/19 00:53:28;;;;;;;0.60;0.40;;;;;;;14.65;68.11;98216.72;4979304;28;20069;-70
2023/04/19 00:55:54;;;;;;;0.88;0.60;;;;;;;14.69;67.95;98226.94;5011552;28;20034;-69
2023/04/19 00:58:19;;;;;;;0.80;0.47;;;;;;;14.68;67.98;98222.69;5011441;28;20056;-70
2023/04/19 01:00:45;;;;;;;0.82;0.52;;;;;;;14.69;68.16;98219.03;5010935;28;20501;-70
2023/04/19 01:03:12;;;;;;;0.80;0.50;;;;;;;14.64;68.11;98220.34;5012116;28;20048;-69
2023/04/19 01:05:37;;;;;;;1.08;0.50;;;;;;;14.64;67.96;98217.72;5012088;28;20069;-69
2023/04/19 01:08:03;;;;;;;1.73;0.60;;;;;;;14.66;68.08;98209.69;4995612;28;20034;-69
2023/04/19 01:10:29;;;;;;;0.45;0.30;;;;;;;14.62;68.02;98217.03;4995691;28;20026;-69
2023/04/19 01:12:54;;;;;;;0.43;0.40;;;;;;;14.63;68.08;98223.13;4995173;28;20096;-69
2023/04/19 01:15:21;;;;;;;0.80;0.50;;;;;;;14.62;67.96;98211.78;5013004;28;20042;-69
2023/04/19 01:17:47;;;;;;;0.50;0.30;;;;;;;14.62;67.69;98210.97;5011365;28;20404;-69
2023/04/19 01:20:12;;;;;;;0.90;0.47;;;;;;;14.61;67.91;98215.41;5011378;28;20058;-69
2023/04/19 01:22:39;;;;;;;0.63;0.50;;;;;;;14.60;67.81;98216.38;4979699;28;20129;-69
2023/04/19 01:25:06;;;;;;;1.15;0.47;;;;;;;14.59;67.86;98211.25;4995496;28;20038;-69
2023/04/19 01:27:31;;;;;;;0.73;0.40;;;;;;;14.58;67.86;98209.59;4979242;28;20113;-69
2023/04/19 01:29:57;;;;;;;0.80;0.50;;;;;;;14.57;67.84;98206.16;4978891;28;20148;-69
2023/04/19 01:32:24;;;;;;;1.27;0.40;;;;;;;14.56;67.77;98208.94;4994991;28;20136;-69
2023/04/19 01:34:51;;;;;;;0.70;0.40;;;;;;;14.56;67.90;98214.19;5012476;28;20037;-69
2023/04/19 01:37:16;;;;;;;0.93;0.50;;;;;;;14.54;67.82;98208.28;4995119;28;20057;-69
2023/04/19 01:39:42;;;;;;;1.02;0.40;;;;;;;14.55;67.71;98213.38;4994820;28;20493;-69
2023/04/19 01:42:07;;;;;;;0.47;0.38;;;;;;;14.51;67.78;98206.78;4978871;28;20037;-69
2023/04/19 01:44:33;;;;;;;1.30;0.50;;;;;;;14.53;67.68;98214.50;4995141;28;20030;-69
2023/04/19 01:46:58;;;;;;;0.43;0.30;;;;;;;14.56;67.76;98219.44;4978426;28;20076;-69
2023/04/19 01:49:24;;;;;;;0.80;0.40;;;;;;;14.50;67.64;98210.41;5012681;28;20474;-69
2023/04/19 01:51:49;;;;;;;0.40;0.40;;;;;;;14.51;67.66;98205.97;5011514;28;20432;-69
2023/04/19 01:54:15;;;;;;;0.88;0.55;;;;;;;14.51;67.87;98209.41;4995016;28;20037;-69
2023/04/19 01:56:40;;;;;;;0.50;0.40;;;;;;;14.51;67.76;98204.16;4995266;28;20053;-69
2023/04/19 01:59:06;;;;;;;0.82;0.40;;;;;;;14.52;67.90;98202.38;4994633;28;20026;-69
2023/04/19 02:01:31;;;;;;;1.05;0.50;;;;;;;14.52;67.61;98203.19;4995307;28;20034;-69
2023/04/19 02:03:57;;;;;;;0.52;0.40;;;;;;;14.55;67.63;98205.50;4995280;28;20030;-69
2023/04/19 02:06:22;;;;;;;0.60;0.40;;;;;;;14.55;67.71;98202.88;4978499;28;20037;-69
2023/04/19 02:08:48;;;;;;;0.75;0.30;;;;;;;14.53;67.54;98196.13;5010718;28;20046;-69
2023/04/19 02:11:13;;;;;;;0.40;0.30;;;;;;;14.56;67.61;98195.81;5011164;28;20481;-69
2023/04/19 02:13:39;;;;;;;0.93;0.40;;;;;;;14.55;67.71;98199.41;4994573;28;20117;-69
2023/04/19 02:16:05;;;;;;;0.60;0.38;;;;;;;14.52;67.57;98197.13;4978529;28;20040;-69
2023/04/19 02:18:31;;;;;;;0.70;0.40;;;;;;;14.56;67.50;98203.69;4994148;28;20497;-69
2023/04/19 02:20:57;;;;;;;0.52;0.30;;;;;;;14.52;67.59;98197.91;4994488;28;20050;-69
2023/04/19 02:23:23;;;;;;;0.70;0.50;;;;;;;14.52;67.39;98190.03;4993854;28;20025;-69
2023/04/19 02:25:49;;;;;;;1.10;0.35;;;;;;;14.54;67.57;98197.78;5013279;28;20117;-69
2023/04/19 02:28:15;;;;;;;1.27;0.50;;;;;;;14.55;67.40;98202.88;4998330;28;20029;-70
2023/04/19 02:30:40;;;;;;;0.40;0.30;;;;;;;14.53;67.23;98199.59;5014935;28;20038;-72
2023/04/19 02:33:06;;;;;;;0.50;0.20;;;;;;;14.52;67.31;98195.28;5015605;28;20141;-71
2023/04/19 02:35:32;;;;;;;0.77;0.40;;;;;;;14.52;67.20;98192.66;4996634;28;20049;-70
2023/04/19 02:37:59;;;;;;;0.70;0.40;;;;;;;14.52;67.21;98192.66;5015733;28;20036;-69
2023/04/19 02:40:24;;;;;;;0.75;0.50;;;;;;;14.53;67.10;98191.69;4997999;28;20407;-72
2023/04/19 02:42:51;;;;;;;0.52;0.40;;;;;;;14.52;67.26;98197.13;5014243;28;20029;-70
2023/04/19 02:45:16;;;;;;;0.80;0.50;;;;;;;14.50;67.29;98193.78;4981104;28;20497;-69
2023/04/19 02:47:42;;;;;;;0.65;0.45;;;;;;;14.48;67.29;98183.44;5013905;28;20037;-70
2023/04/19 02:50:08;;;;;;;0.57;0.40;;;;;;;14.51;67.37;98192.81;4981613;28;20045;-69
2023/04/19 02:52:33;;;;;;;1.20;0.50;;;;;;;14.51;67.30;98187.56;5014078;28;20025;-69
2023/04/19 02:54:59;;;;;;;1.00;0.50;;;;;;;14.51;67.36;98187.56;4997772;28;20045;-69
2023/04/19 02:57:24;;;;;;;0.93;0.60;;;;;;;14.51;67.32;98183.13;4997477;28;20034;-70
2023/04/19 02:59:50;;;;;;;0.73;0.40;;;;;;;14.51;67.28;98192.81;5014948;28;20037;-69
2023/04/19 03:02:15;;;;;;;0.77;0.60;;;;;;;14.50;67.23;98197.25;5014494;28;20401;-69
2023/04/19 03:04:42;;;;;;;0.80;0.50;;;;;;;14.48;67.29;98200.03;5014993;28;20109;-69
2023/04/19 03:07:08;;;;;;;1.55;0.68;;;;;;;14.50;67.18;98197.25;5015261;28;20038;-70
2023/04/19 03:09:34;;;;;;;1.55;0.63;;;;;;;14.50;67.16;98202.53;4997988;28;20495;-68
2023/04/19 03:12:00;;;;;;;1.10;0.68;;;;;;;14.46;67.24;98194.09;4997625;28;20041;-70
2023/04/19 03:14:25;;;;;;;0.85;0.60;;;;;;;14.46;67.18;98193.28;4997208;28;20143;-68
2023/04/19 03:16:51;;;;;;;1.95;0.70;;;;;;;14.48;67.00;98197.41;4981297;28;20454;-69
2023/04/19 03:19:16;;;;;;;1.48;0.70;;;;;;;14.48;67.17;98194.78;4996540;28;20030;-69
2023/04/19 03:21:42;;;;;;;0.93;0.60;;;;;;;14.46;67.17;98193.28;5013571;28;20050;-69
2023/04/19 03:24:07;;;;;;;1.00;0.60;;;;;;;14.46;67.09;98193.28;5012900;28;20026;-70
2023/04/19 03:26:33;;;;;;;1.30;0.73;;;;;;;14.47;67.12;98194.94;4996590;28;20073;-69
2023/04/19 03:28:58;;;;;;;0.90;0.60;;;;;;;14.50;67.11;98199.03;4997354;28;20030;-68
2023/04/19 03:31:24;;;;;;;0.80;0.60;;;;;;;14.48;66.97;98197.41;4995104;28;20501;-70
2023/04/19 03:33:49;;;;;;;2.72;1.55;;;;;;;14.53;71.76;98196.97;5013315;28;20045;-68
2023/04/19 03:36:15;;;;;;;2.55;1.48;;;;;;;14.84;75.14;98193.84;4979823;28;20520;-68
2023/04/19 03:38:42;;;;;;;2.35;1.23;;;;;;;15.14;77.30;98194.28;4981122;28;20058;-68
2023/04/19 03:41:18;;;;;;;6.93;1.27;;;;;;;15.18;75.05;98191.19;4997008;28;20447;-70
2023/04/19 03:43:43;;;;;;;12.98;1.55;;;;;;;15.16;73.40;98189.69;4997089;28;20037;-69
2023/04/19 03:46:09;;;;;;;2.40;1.30;;;;;;;15.09;72.40;98191.31;5013644;28;20037;-69
2023/04/19 03:48:34;;;;;;;2.25;1.38;;;;;;;15.14;74.06;98195.09;4996996;28;20449;-68
2023/04/19 03:51:00;;;;;;;3.72;1.50;;;;;;;15.11;72.60;98182.28;4980837;28;20026;-68
2023/04/19 03:53:25;;;;;;;2.83;1.48;;;;;;;15.13;71.99;98198.75;4996371;28;20030;-69
2023/04/19 03:55:51;;;;;;;4.30;2.40;;;;;;;15.11;71.51;98197.25;4997108;28;20386;-66
2023/04/19 03:58:17;;;;;;;2.22;1.38;;;;;;;15.06;71.39;98202.97;5012897;28;20030;-66
2023/04/19 04:00:42;;;;;;;3.10;1.40;;;;;;;15.04;71.17;98201.47;4996808;28;20029;-66
2023/04/19 04:03:08;;;;;;;10.88;1.60;;;;;;;15.01;70.78;98202.63;4979933;28;20045;-66
2023/04/19 04:05:34;;;;;;;3.13;1.85;;;;;;;15.01;73.44;98202.63;4996383;28;20489;-71
2023/04/19 04:07:59;;;;;;;4.93;2.42;;;;;;;15.44;75.57;98192.88;4998311;28;20060;-71
2023/04/19 04:10:25;;;;;;;7.53;2.50;;;;;;;15.49;74.88;98198.47;4997251;28;20068;-67
2023/04/19 04:12:51;;;;;;;12.75;2.15;;;;;;;15.91;73.46;98204.66;4980180;28;20033;-66
2023/04/19 04:15:16;;;;;;;9.23;2.45;;;;;;;15.93;71.55;98207.94;4995101;28;20084;-65
2023/04/19 04:17:42;;;;;;;6.72;2.22;;;;;;;15.83;69.93;98205.47;4978934;28;20034;-66
2023/04/19 04:20:08;;;;;;;7.25;2.53;;;;;;;15.74;68.83;98207.22;5011286;28;20049;-66
2023/04/19 04:22:34;;;;;;;12.50;2.50;;;;;;;15.63;68.55;98206.72;5011891;28;20481;-66
2023/04/19 04:25:01;;;;;;;7.28;2.60;;;;;;;15.59;68.04;98210.66;4995778;28;20049;-65
2023/04/19 04:27:26;;;;;;;5.53;2.70;;;;;;;15.49;67.85;98200.28;5013222;28;20030;-65
2023/04/19 04:29:52;;;;;;;3.40;2.50;;;;;;;15.42;67.51;98215.06;4995577;28;20045;-67
2023/04/19 04:32:21;;;;;;;6.68;2.42;;;;;;;15.36;67.41;98209.47;4978436;28;20069;-65
2023/04/19 04:34:47;;;;;;;6.60;2.70;;;;;;;15.30;67.44;98218.00;5012829;28;20033;-65
2023/04/19 04:37:12;;;;;;;5.05;2.47;;;;;;;15.23;67.08;98209.13;4995560;28;20484;-67
2023/04/19 04:39:38;;;;;;;4.47;2.25;;;;;;;15.16;67.13;98215.97;4979815;28;20029;-65
2023/04/19 04:42:07;;;;;;;5.53;2.70;;;;;;;15.12;67.29;98215.47;4979750;28;20040;-65
2023/04/19 04:44:36;;;;;;;8.95;2.60;;;;;;;15.10;67.03;98216.59;4996156;28;20413;-67
2023/04/19 04:47:01;;;;;;;6.32;2.40;;;;;;;15.06;66.69;98217.94;5011101;28;20424;-67
2023/04/19 04:49:28;;;;;;;4.35;2.40;;;;;;;15.01;66.80;98219.22;4994330;28;20033;-66
2023/04/19 04:51:53;;;;;;;3.75;2.40;;;;;;;14.98;66.28;98222.16;4979935;28;20187;-67
2023/04/19 04:54:19;;;;;;;4.53;2.28;;;;;;;14.92;66.11;98212.25;5012682;28;20423;-67
2023/04/19 04:56:44;;;;;;;3.63;2.10;;;;;;;14.91;66.16;98213.28;4979676;28;20033;-66
2023/04/19 04:59:10;;;;;;;3.10;2.15;;;;;;;14.85;66.31;98208.63;5011692;28;20135;-66
2023/04/19 05:01:35;;;;;;;2.88;1.80;;;;;;;14.86;65.78;98215.53;4996169;28;20044;-68
2023/04/19 05:04:01;;;;;;;5.82;2.10;;;;;;;14.84;65.88;98220.94;4995746;28;20034;-67
2023/04/19 05:06:26;;;;;;;3.08;2.13;;;;;;;14.84;65.84;98220.94;4995402;28;20096;-65
2023/04/19 05:08:52;;;;;;;3.67;2.10;;;;;;;14.79;65.91;98207.44;4995474;28;20394;-66
2023/04/19 05:11:17;;;;;;;3.03;2.22;;;;;;;14.80;65.80;98214.38;4994873;28;20034;-66
2023/04/19 05:13:43;;;;;;;3.80;2.00;;;;;;;14.77;65.52;98219.09;5011861;28;20045;-66
2023/04/19 05:16:08;;;;;;;2.50;1.83;;;;;;;14.75;65.51;98206.09;4979029;28;20448;-66
2023/04/19 05:18:34;;;;;;;3.25;1.80;;;;;;;14.77;65.21;98208.56;4994708;28;20034;-67
2023/04/19 05:20:59;;;;;;;3.80;1.70;;;;;;;14.76;65.11;98228.78;4978782;28;20054;-66
2023/04/19 05:23:25;;;;;;;5.93;1.80;;;;;;;14.76;65.18;98227.97;4979168;28;20040;-66
2023/04/19 05:25:50;;;;;;;4.43;2.00;;;;;;;14.75;65.29;98234.19;5011516;28;20041;-67
2023/04/19 05:28:16;;;;;;;5.75;2.50;;;;;;;14.75;65.06;98234.19;5010766;28;20042;-67
2023/04/19 05:30:41;;;;;;;12.68;3.88;;;;;;;14.73;64.52;98230.91;4978266;28;20068;-67
2023/04/19 05:33:07;;;;;;;18.38;5.53;;;;;;;14.66;64.50;98225.47;4979144;28;20107;-67
2023/04/19 05:35:32;;;;;;;25.25;7.15;;;;;;;14.65;64.35;98235.13;4995591;28;20037;-67
2023/04/19 05:37:58;;;;;;;30.42;8.13;;;;;;;14.71;64.34;98227.63;4995263;28;20037;-67
2023/04/19 05:40:23;;;;;;;49.40;13.32;;;;;;;14.65;64.21;98218.53;4995201;28;20037;-67
2023/04/19 05:42:49;;;;;;;49.45;13.02;;;;;;;14.68;63.93;98220.03;4994736;28;20046;-67
2023/04/19 05:45:15;;;;;;;45.20;12.65;;;;;;;14.72;63.97;98230.09;4995306;28;20065;-67
2023/04/19 05:47:41;;;;;;;35.53;11.77;;;;;;;14.70;63.92;98218.09;4979283;28;20033;-67
2023/04/19 05:50:06;;;;;;;34.63;10.75;;;;;;;14.75;63.89;98224.50;4994773;28;20486;-69
2023/04/19 05:52:32;;;;;;;29.52;10.15;;;;;;;14.78;63.98;98226.00;4994916;28;20030;-68
2023/04/19 05:54:58;;;;;;;36.30;10.68;;;;;;;14.77;63.88;98224.34;5011072;28;20042;-66
2023/04/19 05:57:23;;;;;;;30.55;9.93;;;;;;;14.79;64.04;98222.41;4979029;28;20025;-66
2023/04/19 05:59:49;;;;;;;25.20;7.93;;;;;;;14.79;63.94;98225.84;4994795;28;20495;-65
2023/04/19 06:02:14;;;;;;;19.17;7.63;;;;;;;14.81;63.84;98223.88;5012616;28;20037;-67
2023/04/19 06:04:40;;;;;;;21.83;7.53;;;;;;;14.83;63.89;98228.97;5010681;28;20433;-67
2023/04/19 06:07:06;;;;;;;18.50;6.85;;;;;;;14.84;63.90;98220.94;5010536;28;20038;-68
2023/04/19 06:09:31;;;;;;;15.07;6.25;;;;;;;14.85;63.71;98224.41;4993061;28;20042;-68
2023/04/19 06:11:57;;;;;;;13.43;6.32;;;;;;;14.90;63.84;98223.94;4993633;28;20057;-68
2023/04/19 06:14:22;;;;;;;17.45;5.25;;;;;;;14.92;63.67;98228.03;4994151;28;20030;-70
2023/04/19 06:16:48;;;;;;;15.63;5.30;;;;;;;14.91;63.65;98222.94;4994924;28;20112;-66
2023/04/19 06:19:14;;;;;;;12.73;5.22;;;;;;;14.95;63.44;98224.28;4977386;28;20045;-67
2023/04/19 06:21:39;;;;;;;10.20;4.70;;;;;;;15.01;63.25;98240.25;4994315;28;20092;-67
2023/04/19 06:24:05;;;;;;;11.82;3.88;;;;;;;15.05;63.35;98240.75;5010721;28;20057;-66
2023/04/19 06:26:31;;;;;;;10.90;4.38;;;;;;;15.09;62.73;98242.09;4993948;28;20054;-66
2023/04/19 06:28:56;;;;;;;15.25;4.78;;;;;;;15.15;62.62;98243.28;4978423;28;20022;-69
2023/04/19 06:31:22;;;;;;;8.82;4.13;;;;;;;15.25;62.44;98251.84;4994816;28;20025;-67
2023/04/19 06:33:48;;;;;;;10.15;4.07;;;;;;;15.33;62.17;98246.59;4994062;28;20034;-66
2023/04/19 06:36:13;;;;;;;9.40;4.05;;;;;;;15.44;62.11;98248.13;4994633;28;20068;-67
2023/04/19 06:38:40;;;;;;;10.55;4.43;;;;;;;15.52;61.72;98250.75;4978840;28;20038;-67
2023/04/19 06:41:06;;;;;;;9.63;4.07;;;;;;;15.63;61.43;98254.91;4994942;28;20034;-67
2023/04/19 06:43:31;;;;;;;9.20;4.32;;;;;;;15.69;61.43;98249.00;4995111;28;20022;-66
2023/04/19 06:46:00;;;;;;;9.13;3.40;;;;;;;15.75;61.14;98244.91;5011153;28;20034;-66
2023/04/19 06:48:26;;;;;;;7.35;3.35;;;;;;;15.89;61.13;98256.63;4995261;28;20033;-66
2023/04/19 06:50:53;;;;;;;8.13;3.70;;;;;;;16.03;60.55;98257.78;4978110;28;20443;-66
2023/04/19 06:53:18;;;;;;;8.23;3.58;;;;;;;16.23;60.09;98245.13;4994764;28;20022;-66
2023/04/19 06:55:45;;;;;;;7.45;3.42;;;;;;;16.53;59.37;98254.16;4994334;28;20083;-67
2023/04/19 06:58:10;;;;;;;5.90;2.88;;;;;;;16.70;58.91;98247.06;5010262;28;20416;-67
2023/04/19 07:00:36;;;;;;;5.22;3.00;;;;;;;16.82;58.58;98247.50;4994514;28;20049;-68
2023/04/19 07:03:02;;;;;;;9.23;3.00;;;;;;;16.87;58.40;98258.38;4978326;28;20121;-69
2023/04/19 07:05:28;;;;;;;4.63;2.17;;;;;;;16.94;58.23;98258.56;4994204;28;20123;-69
2023/04/19 07:07:53;;;;;;;4.93;2.13;;;;;;;16.97;58.30;98268.75;4994660;28;20018;-68
2023/04/19 07:10:19;;;;;;;5.15;1.92;;;;;;;16.96;57.66;98264.47;5011559;28;20072;-66
2023/04/19 07:12:45;;;;;;;3.83;1.80;;;;;;;17.02;57.43;98276.16;5013427;28;20037;-66
2023/04/19 07:15:10;;;;;;;4.32;1.98;;;;;;;17.02;57.09;98276.97;5014019;28;20527;-69
2023/04/19 07:17:36;;;;;;;3.72;1.60;;;;;;;17.05;56.77;98281.91;5013605;28;20038;-66
2023/04/19 07:20:04;;;;;;;2.67;1.60;;;;;;;17.09;56.95;98285.03;5000986;28;20132;-66
2023/04/19 07:22:29;;;;;;;2.90;1.57;;;;;;;17.06;56.96;98278.25;5016147;28;20511;-68
2023/04/19 07:24:55;;;;;;;2.35;1.30;;;;;;;17.04;56.70;98280.25;5017371;28;20055;-68
2023/04/19 07:27:20;;;;;;;5.15;1.40;;;;;;;17.03;56.89;98285.69;5017255;28;20033;-67
2023/04/19 07:29:46;;;;;;;2.75;1.35;;;;;;;16.99;57.03;98282.59;4984886;28;20189;-68
2023/04/19 07:32:12;;;;;;;2.38;1.17;;;;;;;16.98;56.68;98288.84;5015443;28;20033;-67
2023/04/19 07:34:40;;;;;;;2.47;1.42;;;;;;;16.97;56.51;98282.75;4984905;28;20095;-67
2023/04/19 07:37:06;;;;;;;1.88;1.17;;;;;;;16.96;56.44;98289.00;5000180;28;20047;-69
2023/04/19 07:39:31;;;;;;;2.40;1.15;;;;;;;16.89;56.46;98288.06;4999305;28;20034;-67
2023/04/19 07:41:57;;;;;;;2.13;1.20;;;;;;;16.94;56.38;98298.09;5000724;28;20037;-68
2023/04/19 07:44:22;;;;;;;2.63;1.23;;;;;;;16.90;56.49;98294.13;5017247;28;20029;-69
2023/04/19 07:46:48;;;;;;;4.93;1.00;;;;;;;16.87;56.36;98299.75;4984714;28;20132;-67
2023/04/19 07:49:14;;;;;;;1.95;1.02;;;;;;;16.85;56.44;98305.16;5000165;28;20038;-67
2023/04/19 07:51:39;;;;;;;1.92;1.08;;;;;;;16.85;56.26;98307.78;4984383;28;20033;-67
2023/04/19 07:54:05;;;;;;;2.72;1.13;;;;;;;16.85;56.18;98314.88;5016988;28;20036;-67
2023/04/19 07:56:31;;;;;;;1.67;0.85;;;;;;;16.80;56.26;98313.56;4999979;28;20103;-67
2023/04/19 07:58:57;;;;;;;4.07;1.05;;;;;;;16.75;56.47;98302.72;5000440;28;20025;-67
2023/04/19 08:01:22;;;;;;;1.90;1.35;;;;;;;16.76;56.35;98309.63;4983556;28;20057;-68
2023/04/19 08:03:47;;;;;;;1.90;1.00;;;;;;;16.77;56.11;98315.72;5000438;28;20033;-67
2023/04/19 08:06:13;;;;;;;1.42;0.88;;;;;;;16.76;56.26;98309.63;4983508;28;20063;-67
2023/04/19 08:08:38;;;;;;;1.55;0.90;;;;;;;16.71;56.33;98309.28;5000092;28;20495;-67
2023/04/19 08:11:05;;;;;;;1.80;0.90;;;;;;;16.75;56.27;98315.88;4983370;28;20048;-68
2023/04/19 08:13:30;;;;;;;1.13;0.70;;;;;;;16.71;56.51;98311.94;5016398;28;20065;-68
2023/04/19 08:15:56;;;;;;;1.58;0.82;;;;;;;16.77;56.46;98316.53;4982891;28;20077;-67
2023/04/19 08:18:21;;;;;;;1.80;0.90;;;;;;;16.79;56.45;98313.72;4983507;28;20025;-67
2023/04/19 08:20:47;;;;;;;1.92;0.80;;;;;;;16.84;56.26;98319.34;5015675;28;20520;-68
2023/04/19 08:23:13;;;;;;;2.30;1.00;;;;;;;16.82;56.16;98314.25;4981795;28;20073;-67
2023/04/19 08:25:38;;;;;;;1.83;1.00;;;;;;;16.88;56.20;98314.59;4983077;28;20037;-68
2023/04/19 08:28:04;;;;;;;3.75;1.10;;;;;;;16.90;56.10;98308.13;4983541;28;20069;-71
2023/04/19 08:30:30;;;;;;;2.47;1.20;;;;;;;16.98;56.09;98312.56;4982806;28;20535;-67
2023/04/19 08:32:55;;;;;;;1.95;1.20;;;;;;;17.02;56.05;98316.53;4983309;28;20046;-67
2023/04/19 08:35:21;;;;;;;2.80;1.20;;;;;;;17.10;55.77;98321.78;4999995;28;20036;-68
2023/04/19 08:37:48;;;;;;;2.15;1.27;;;;;;;17.14;55.82;98320.47;4999211;28;20508;-67
2023/04/19 08:40:15;;;;;;;2.00;1.20;;;;;;;17.18;55.64;98323.56;4999367;28;20393;-69
2023/04/19 08:42:41;;;;;;;2.05;1.17;;;;;;;17.17;55.57;98317.47;4983628;28;20044;-67
2023/04/19 08:45:07;;;;;;;1.17;0.80;;;;;;;17.18;55.27;98327.03;4999369;28;20484;-67
2023/04/19 08:47:32;;;;;;;2.38;1.00;;;;;;;17.14;55.32;98317.81;4998357;28;20026;-67
2023/04/19 08:49:59;;;;;;;1.58;0.90;;;;;;;17.19;55.03;98319.94;4982151;28;20041;-68
2023/04/19 08:52:25;;;;;;;4.18;0.75;;;;;;;17.20;54.85;98318.94;5015851;28;20025;-69
2023/04/19 08:54:50;;;;;;;3.60;1.00;;;;;;;17.23;54.93;98330.97;4983651;28;20385;-67
2023/04/19 08:57:16;;;;;;;2.63;0.90;;;;;;;17.24;55.21;98322.91;4998637;28;20519;-67
2023/04/19 08:59:44;;;;;;;2.85;0.90;;;;;;;17.25;55.25;98321.06;4998621;28;20064;-68
2023/04/19 09:02:09;;;;;;;3.78;1.10;;;;;;;17.26;55.14;98317.44;5014923;28;20030;-66
2023/04/19 09:04:35;;;;;;;3.00;0.80;;;;;;;17.29;55.20;98319.75;4998989;28;20048;-67
2023/04/19 09:07:00;;;;;;;1.20;0.60;;;;;;;17.38;54.86;98326.66;5015148;28;20064;-68
2023/04/19 09:09:27;;;;;;;1.52;0.90;;;;;;;17.48;54.56;98326.44;4996592;28;20048;-68
2023/04/19 09:11:53;;;;;;;0.88;0.50;;;;;;;17.63;54.16;98324.72;5015975;28;20033;-68
2023/04/19 09:14:20;;;;;;;1.92;0.60;;;;;;;17.71;53.99;98324.69;4998627;28;20029;-67
2023/04/19 09:16:45;;;;;;;1.55;0.90;;;;;;;17.90;54.12;98330.56;4998952;28;20075;-66
2023/04/19 09:19:11;;;;;;;2.65;1.67;;;;;;;18.02;53.83;98336.25;5014945;28;20037;-67
2023/04/19 09:21:36;;;;;;;3.65;2.30;;;;;;;18.13;53.53;98332.41;4999028;28;20492;-66
2023/04/19 09:24:02;;;;;;;3.17;2.50;;;;;;;18.15;53.35;98323.28;4997628;28;20061;-68
2023/04/19 09:26:30;;;;;;;4.00;3.00;;;;;;;18.35;52.83;98331.56;4998704;28;20536;-67
2023/04/19 09:29:06;;;;;;;5.43;3.80;;;;;;;18.47;52.42;98324.06;5015294;28;20160;-67
2023/04/19 09:31:32;;;;;;;5.95;4.88;;;;;;;18.73;51.94;98325.47;4998774;28;20049;-70
2023/04/19 09:34:12;;;;;;;6.30;4.25;;;;;;;18.95;51.65;98327.28;4982254;28;20029;-69
2023/04/19 09:36:37;;;;;;;6.15;4.50;;;;;;;19.08;51.19;98325.81;4998870;28;20036;-68
2023/04/19 09:39:03;;;;;;;4.90;3.88;;;;;;;19.19;50.94;98320.06;4997968;28;20025;-71
2023/04/19 09:41:29;;;;;;;5.38;4.15;;;;;;;19.26;50.55;98330.75;4998009;28;20468;-66
2023/04/19 09:43:54;;;;;;;7.22;5.85;;;;;;;19.31;50.13;98329.22;4998529;28;20029;-72
2023/04/19 09:46:30;;;;;;;6.50;4.93;;;;;;;19.42;49.60;98327.94;4998515;28;20029;-71
2023/04/19 09:49:12;;;;;;;6.35;4.63;;;;;;;19.51;49.53;98323.34;5015237;28;20095;-70
2023/04/19 09:51:41;;;;;;;5.32;4.30;;;;;;;19.53;49.18;98321.34;4999091;28;20099;-69
2023/04/19 09:54:08;;;;;;;5.20;4.20;;;;;;;19.54;48.99;98322.97;4998022;28;20091;-70
2023/04/19 09:56:35;;;;;;;5.55;4.10;;;;;;;19.55;48.77;98323.81;4998282;28;20102;-68
2023/04/19 09:59:02;;;;;;;6.22;3.83;;;;;;;19.58;48.74;98315.50;5014807;28;20033;-68
2023/04/19 10:01:28;;;;;;;4.05;3.00;;;;;;;19.68;48.12;98318.66;4981398;28;20129;-70
2023/04/19 10:03:53;;;;;;;4.75;3.13;;;;;;;19.69;47.96;98321.13;5014766;28;20453;-69
2023/04/19 10:06:19;;;;;;;5.63;2.75;;;;;;;19.67;48.09;98306.41;4981473;28;20036;-68
2023/04/19 10:08:45;;;;;;;3.40;2.33;;;;;;;19.73;47.81;98315.47;4980680;28;20033;-69
2023/04/19 10:11:10;;;;;;;2.47;2.10;;;;;;;19.76;47.44;98315.09;4997641;28;20033;-69
2023/04/19 10:13:36;;;;;;;2.80;1.83;;;;;;;19.65;47.61;98309.25;4981234;28;20026;-70
2023/04/19 10:16:02;;;;;;;2.13;1.45;;;;;;;19.70;47.35;98314.84;4997743;28;20037;-67
2023/04/19 10:18:28;;;;;;;1.77;1.20;;;;;;;19.65;47.53;98311.91;4998282;28;20064;-70
2023/04/19 10:20:57;;;;;;;2.30;1.50;;;;;;;19.66;47.09;98310.91;5013586;28;20049;-65
2023/04/19 10:23:22;;;;;;;2.63;1.50;;;;;;;19.62;47.33;98317.56;4981488;28;20565;-66
2023/04/19 10:25:48;;;;;;;2.63;1.40;;;;;;;19.58;47.40;98310.22;5014318;28;20033;-67
2023/04/19 10:28:16;;;;;;;4.35;1.10;;;;;;;19.55;47.20;98308.75;4981474;28;20087;-66
2023/04/19 10:30:57;;;;;;;1.70;0.90;;;;;;;19.48;47.33;98305.19;4997719;28;20033;-66
2023/04/19 10:33:27;;;;;;;1.52;1.00;;;;;;;19.36;47.62;98293.44;4998851;28;20041;-67
2023/04/19 10:35:58;;;;;;;1.98;1.20;;;;;;;19.23;47.66;98294.91;4980391;28;20051;-67
2023/04/19 10:38:46;;;;;;;1.58;1.00;;;;;;;19.25;47.40;98297.38;5014961;28;20026;-67
2023/04/19 10:41:13;;;;;;;1.70;1.10;;;;;;;19.21;47.72;98288.97;4998489;28;20095;-66
2023/04/19 10:43:38;;;;;;;2.38;1.30;;;;;;;19.25;47.53;98287.59;4998104;28;20504;-66
2023/04/19 10:46:16;;;;;;;5.28;1.40;;;;;;;19.24;47.52;98290.44;4998227;28;20098;-65
2023/04/19 10:48:57;;;;;;;5.03;1.40;;;;;;;19.30;47.09;98293.16;5018082;28;20026;-66
2023/04/19 10:51:29;;;;;;;5.50;1.73;;;;;;;19.39;47.07;98291.25;5002525;28;20116;-67
2023/04/19 10:53:55;;;;;;;4.43;2.17;;;;;;;19.49;46.73;98285.66;5001436;28;20408;-67
2023/04/19 10:56:56;;;;;;;3.47;1.60;;;;;;;19.56;46.80;98293.66;5000266;28;20049;-65
2023/04/19 10:59:22;;;;;;;2.38;1.60;;;;;;;19.63;46.23;98292.75;4987293;28;20129;-66
2023/04/19 11:01:55;;;;;;;8.90;1.85;;;;;;;19.67;46.07;98287.88;4999722;28;20037;-66
2023/04/19 11:04:47;;;;;;;2.85;1.75;;;;;;;19.72;45.74;98301.41;5001771;28;20392;-66
2023/04/19 11:07:12;;;;;;;4.10;2.10;;;;;;;19.76;45.52;98299.19;5004251;28;20045;-66
2023/04/19 11:09:41;;;;;;;7.82;2.17;;;;;;;19.81;45.33;98289.69;5001668;28;20067;-67
2023/04/19 11:12:12;;;;;;;;;;;;;;;19.83;45.06;98293.00;5001677;28;20026;-69
2023/04/19 11:14:42;;;;;;;4.55;2.38;;;;;;;19.91;45.10;98291.22;5016769;28;20384;-65
2023/04/19 11:17:25;;;;;;;5.45;2.30;;;;;;;19.98;44.61;98286.84;4984830;28;20509;-66
2023/04/19 11:19:55;;;;;;;7.25;2.70;;;;;;;19.99;44.75;98289.28;4986064;28;20122;-66
2023/04/19 11:22:25;;;;;;;4.13;2.40;;;;;;;20.01;44.29;98284.63;4983995;28;20033;-66
2023/04/19 11:24:51;;;;;;;16.23;3.13;;;;;;;20.07;44.11;98285.72;4985028;28;20077;-66
2023/04/19 11:27:16;;;;;;;4.57;2.30;;;;;;;20.14;44.21;98285.75;4983630;28;20469;-66